North Clymer, New York
Current Conditions -  °F | °C
As of 9:35 PM on Tuesday 21 Oct 2014 (Local Time) from KJHW Reporting Station
Overcast Overcast  
Wind Chill: 39°   Ceiling: 200
Heat Index: 45°   Visibility: 0.5mi
Dew Point: 43°   Wind: 10mph
Humidity: 93%   Direction: 10°N
Pressure: 30.02"   Gusts: NA
Location:  42.075°N, 79.5726°W
Report Text: KJHW 220135Z AUTO 01009KT 1/2SM OVC002 07/06 A3002 RMK AO1
Loading
Personal Weather Stations






























Interactive Weather Map
Tropical Storm Tracking
New forecast layout! Learn more

10-Day Weather Forecast

Advertisements
Track Severe Weather on mobile